sensor_id;sensor_type;location;lat;lon;timestamp;P1;durP1;ratioP1;P2;durP2;ratioP2
68647;SDS011;55632;51.962;16.116;2023-02-28T00:00:46;77.32;;;28.48;;
68647;SDS011;55632;51.962;16.116;2023-02-28T00:05:47;86.40;;;27.60;;
68647;SDS011;55632;51.962;16.116;2023-02-28T00:10:48;67.68;;;26.95;;
68647;SDS011;55632;51.962;16.116;2023-02-28T00:16:01;78.55;;;31.75;;
68647;SDS011;55632;51.962;16.116;2023-02-28T00:21:04;75.15;;;25.05;;
68647;SDS011;55632;51.962;16.116;2023-02-28T00:26:10;58.13;;;21.23;;
68647;SDS011;55632;51.962;16.116;2023-02-28T00:31:11;34.80;;;15.93;;
68647;SDS011;55632;51.962;16.116;2023-02-28T00:36:13;85.25;;;28.77;;
68647;SDS011;55632;51.962;16.116;2023-02-28T00:41:14;56.47;;;22.45;;
68647;SDS011;55632;51.962;16.116;2023-02-28T00:46:15;50.50;;;24.08;;
68647;SDS011;55632;51.962;16.116;2023-02-28T00:51:19;69.97;;;25.60;;
68647;SDS011;55632;51.962;16.116;2023-02-28T00:56:23;67.22;;;24.38;;
68647;SDS011;55632;51.962;16.116;2023-02-28T01:06:27;33.60;;;13.57;;
68647;SDS011;55632;51.962;16.116;2023-02-28T01:11:31;39.13;;;17.25;;
68647;SDS011;55632;51.962;16.116;2023-02-28T01:16:38;38.28;;;17.85;;
68647;SDS011;55632;51.962;16.116;2023-02-28T01:21:41;40.83;;;17.90;;
68647;SDS011;55632;51.962;16.116;2023-02-28T01:26:42;38.67;;;17.08;;
68647;SDS011;55632;51.962;16.116;2023-02-28T01:31:46;39.38;;;15.05;;
68647;SDS011;55632;51.962;16.116;2023-02-28T01:36:47;42.75;;;21.50;;
68647;SDS011;55632;51.962;16.116;2023-02-28T01:41:48;45.13;;;18.75;;
68647;SDS011;55632;51.962;16.116;2023-02-28T01:46:51;55.17;;;21.65;;
68647;SDS011;55632;51.962;16.116;2023-02-28T01:51:53;37.67;;;14.57;;
68647;SDS011;55632;51.962;16.116;2023-02-28T01:56:58;28.38;;;14.40;;
68647;SDS011;55632;51.962;16.116;2023-02-28T02:02:06;31.55;;;16.50;;
68647;SDS011;55632;51.962;16.116;2023-02-28T02:07:07;34.90;;;14.35;;
68647;SDS011;55632;51.962;16.116;2023-02-28T02:17:45;41.92;;;18.05;;
68647;SDS011;55632;51.962;16.116;2023-02-28T02:44:25;30.02;;;13.43;;
68647;SDS011;55632;51.962;16.116;2023-02-28T02:49:32;27.33;;;13.10;;
68647;SDS011;55632;51.962;16.116;2023-02-28T02:54:36;34.30;;;14.68;;
68647;SDS011;55632;51.962;16.116;2023-02-28T02:59:40;23.55;;;12.30;;
68647;SDS011;55632;51.962;16.116;2023-02-28T03:04:43;28.35;;;12.57;;
68647;SDS011;55632;51.962;16.116;2023-02-28T03:09:50;23.88;;;10.88;;
68647;SDS011;55632;51.962;16.116;2023-02-28T03:19:55;28.52;;;12.07;;
68647;SDS011;55632;51.962;16.116;2023-02-28T03:25:31;27.58;;;11.55;;
68647;SDS011;55632;51.962;16.116;2023-02-28T03:30:40;20.85;;;10.63;;
68647;SDS011;55632;51.962;16.116;2023-02-28T03:36:32;18.67;;;9.25;;
68647;SDS011;55632;51.962;16.116;2023-02-28T03:41:17;27.60;;;11.38;;
68647;SDS011;55632;51.962;16.116;2023-02-28T03:46:22;22.05;;;9.82;;
68647;SDS011;55632;51.962;16.116;2023-02-28T03:51:25;21.58;;;9.75;;
68647;SDS011;55632;51.962;16.116;2023-02-28T03:56:38;19.17;;;8.48;;
68647;SDS011;55632;51.962;16.116;2023-02-28T04:01:48;23.85;;;10.05;;
68647;SDS011;55632;51.962;16.116;2023-02-28T04:06:50;17.02;;;8.15;;
68647;SDS011;55632;51.962;16.116;2023-02-28T04:11:52;27.67;;;11.50;;
68647;SDS011;55632;51.962;16.116;2023-02-28T04:21:56;27.08;;;11.50;;
68647;SDS011;55632;51.962;16.116;2023-02-28T04:26:57;27.80;;;12.52;;
68647;SDS011;55632;51.962;16.116;2023-02-28T04:37:00;30.75;;;10.77;;
68647;SDS011;55632;51.962;16.116;2023-02-28T04:42:01;20.33;;;9.70;;
68647;SDS011;55632;51.962;16.116;2023-02-28T04:47:02;19.25;;;9.98;;
68647;SDS011;55632;51.962;16.116;2023-02-28T04:52:03;24.25;;;10.43;;
68647;SDS011;55632;51.962;16.116;2023-02-28T04:57:04;23.65;;;10.27;;
68647;SDS011;55632;51.962;16.116;2023-02-28T05:02:06;33.72;;;14.45;;
68647;SDS011;55632;51.962;16.116;2023-02-28T05:07:07;24.42;;;10.88;;
68647;SDS011;55632;51.962;16.116;2023-02-28T05:12:08;22.90;;;9.45;;
68647;SDS011;55632;51.962;16.116;2023-02-28T05:17:09;29.30;;;11.48;;
68647;SDS011;55632;51.962;16.116;2023-02-28T05:22:14;27.73;;;12.52;;
68647;SDS011;55632;51.962;16.116;2023-02-28T05:27:18;19.00;;;8.20;;
68647;SDS011;55632;51.962;16.116;2023-02-28T05:32:19;26.52;;;12.25;;
68647;SDS011;55632;51.962;16.116;2023-02-28T05:37:20;24.38;;;11.15;;
68647;SDS011;55632;51.962;16.116;2023-02-28T05:47:21;23.40;;;11.33;;
68647;SDS011;55632;51.962;16.116;2023-02-28T05:52:22;24.08;;;10.93;;
68647;SDS011;55632;51.962;16.116;2023-02-28T06:02:24;21.93;;;11.50;;
68647;SDS011;55632;51.962;16.116;2023-02-28T06:07:25;30.35;;;12.65;;
68647;SDS011;55632;51.962;16.116;2023-02-28T06:12:25;30.20;;;14.00;;
68647;SDS011;55632;51.962;16.116;2023-02-28T06:17:26;57.38;;;18.70;;
68647;SDS011;55632;51.962;16.116;2023-02-28T06:22:27;55.97;;;20.20;;
68647;SDS011;55632;51.962;16.116;2023-02-28T06:27:28;38.03;;;16.48;;
68647;SDS011;55632;51.962;16.116;2023-02-28T06:32:28;47.47;;;21.65;;
68647;SDS011;55632;51.962;16.116;2023-02-28T06:37:30;53.03;;;24.55;;
68647;SDS011;55632;51.962;16.116;2023-02-28T06:42:32;76.00;;;38.63;;
68647;SDS011;55632;51.962;16.116;2023-02-28T06:47:33;28.40;;;14.68;;
68647;SDS011;55632;51.962;16.116;2023-02-28T06:52:33;45.95;;;23.35;;
68647;SDS011;55632;51.962;16.116;2023-02-28T06:57:36;30.63;;;17.45;;
68647;SDS011;55632;51.962;16.116;2023-02-28T07:02:37;32.77;;;14.73;;
68647;SDS011;55632;51.962;16.116;2023-02-28T07:07:38;26.48;;;13.13;;
68647;SDS011;55632;51.962;16.116;2023-02-28T07:12:43;29.15;;;13.25;;
68647;SDS011;55632;51.962;16.116;2023-02-28T07:17:44;42.80;;;20.20;;
68647;SDS011;55632;51.962;16.116;2023-02-28T07:22:45;36.97;;;15.98;;
68647;SDS011;55632;51.962;16.116;2023-02-28T07:27:45;23.40;;;9.55;;
68647;SDS011;55632;51.962;16.116;2023-02-28T07:32:46;24.48;;;11.25;;
68647;SDS011;55632;51.962;16.116;2023-02-28T07:37:48;27.90;;;10.65;;
68647;SDS011;55632;51.962;16.116;2023-02-28T07:47:51;22.73;;;10.38;;
68647;SDS011;55632;51.962;16.116;2023-02-28T07:52:52;19.83;;;10.05;;
68647;SDS011;55632;51.962;16.116;2023-02-28T07:57:52;21.75;;;10.10;;
68647;SDS011;55632;51.962;16.116;2023-02-28T08:02:54;30.73;;;11.75;;
68647;SDS011;55632;51.962;16.116;2023-02-28T08:07:55;22.77;;;10.27;;
68647;SDS011;55632;51.962;16.116;2023-02-28T08:12:55;22.05;;;9.82;;
68647;SDS011;55632;51.962;16.116;2023-02-28T08:17:56;22.15;;;10.27;;
68647;SDS011;55632;51.962;16.116;2023-02-28T08:22:57;22.88;;;9.75;;
68647;SDS011;55632;51.962;16.116;2023-02-28T08:27:58;21.33;;;10.70;;
68647;SDS011;55632;51.962;16.116;2023-02-28T08:32:59;22.67;;;10.85;;
68647;SDS011;55632;51.962;16.116;2023-02-28T08:37:59;30.83;;;11.60;;
68647;SDS011;55632;51.962;16.116;2023-02-28T08:43:00;22.77;;;12.88;;
68647;SDS011;55632;51.962;16.116;2023-02-28T08:48:01;25.70;;;13.00;;
68647;SDS011;55632;51.962;16.116;2023-02-28T08:53:02;65.72;;;31.33;;
68647;SDS011;55632;51.962;16.116;2023-02-28T08:58:02;28.35;;;14.63;;
68647;SDS011;55632;51.962;16.116;2023-02-28T09:03:03;29.60;;;12.32;;
68647;SDS011;55632;51.962;16.116;2023-02-28T09:08:04;20.17;;;12.15;;
68647;SDS011;55632;51.962;16.116;2023-02-28T09:13:06;60.38;;;17.63;;
68647;SDS011;55632;51.962;16.116;2023-02-28T09:18:07;16.73;;;8.65;;
68647;SDS011;55632;51.962;16.116;2023-02-28T09:23:08;16.73;;;5.55;;
68647;SDS011;55632;51.962;16.116;2023-02-28T09:28:10;13.38;;;5.72;;
68647;SDS011;55632;51.962;16.116;2023-02-28T09:38:12;11.07;;;6.88;;
68647;SDS011;55632;51.962;16.116;2023-02-28T09:43:13;12.70;;;5.47;;
68647;SDS011;55632;51.962;16.116;2023-02-28T09:48:27;28.73;;;10.32;;
68647;SDS011;55632;51.962;16.116;2023-02-28T09:53:33;25.65;;;9.95;;
68647;SDS011;55632;51.962;16.116;2023-02-28T09:58:44;15.90;;;5.10;;
68647;SDS011;55632;51.962;16.116;2023-02-28T10:03:58;7.85;;;4.97;;
68647;SDS011;55632;51.962;16.116;2023-02-28T10:09:10;56.05;;;12.65;;
68647;SDS011;55632;51.962;16.116;2023-02-28T10:14:17;8.98;;;4.35;;
68647;SDS011;55632;51.962;16.116;2023-02-28T10:19:38;13.35;;;6.25;;
68647;SDS011;55632;51.962;16.116;2023-02-28T10:25:27;8.18;;;4.45;;
68647;SDS011;55632;51.962;16.116;2023-02-28T10:30:29;8.73;;;4.07;;
68647;SDS011;55632;51.962;16.116;2023-02-28T10:35:29;15.65;;;6.80;;
68647;SDS011;55632;51.962;16.116;2023-02-28T10:45:35;7.20;;;3.65;;
68647;SDS011;55632;51.962;16.116;2023-02-28T10:50:42;9.98;;;4.53;;
68647;SDS011;55632;51.962;16.116;2023-02-28T10:55:43;30.38;;;10.80;;
68647;SDS011;55632;51.962;16.116;2023-02-28T11:05:44;207.45;;;40.58;;
68647;SDS011;55632;51.962;16.116;2023-02-28T11:10:53;16.90;;;7.20;;
68647;SDS011;55632;51.962;16.116;2023-02-28T11:15:56;15.80;;;6.93;;
68647;SDS011;55632;51.962;16.116;2023-02-28T11:21:00;10.57;;;5.13;;
68647;SDS011;55632;51.962;16.116;2023-02-28T11:26:03;12.00;;;5.50;;
68647;SDS011;55632;51.962;16.116;2023-02-28T11:41:24;13.07;;;5.60;;
68647;SDS011;55632;51.962;16.116;2023-02-28T11:47:23;16.77;;;7.30;;
68647;SDS011;55632;51.962;16.116;2023-02-28T12:08:19;7.18;;;3.40;;
68647;SDS011;55632;51.962;16.116;2023-02-28T12:13:29;4.70;;;2.70;;
68647;SDS011;55632;51.962;16.116;2023-02-28T12:23:56;9.15;;;3.70;;
68647;SDS011;55632;51.962;16.116;2023-02-28T12:34:51;11.00;;;5.47;;
68647;SDS011;55632;51.962;16.116;2023-02-28T12:40:00;12.02;;;6.35;;
68647;SDS011;55632;51.962;16.116;2023-02-28T12:45:25;9.32;;;3.80;;
68647;SDS011;55632;51.962;16.116;2023-02-28T12:50:31;8.00;;;4.07;;
68647;SDS011;55632;51.962;16.116;2023-02-28T12:55:35;22.85;;;8.35;;
68647;SDS011;55632;51.962;16.116;2023-02-28T13:00:58;8.57;;;5.10;;
68647;SDS011;55632;51.962;16.116;2023-02-28T13:06:19;11.43;;;5.10;;
68647;SDS011;55632;51.962;16.116;2023-02-28T13:11:33;15.63;;;6.47;;
68647;SDS011;55632;51.962;16.116;2023-02-28T13:16:58;9.23;;;5.13;;
68647;SDS011;55632;51.962;16.116;2023-02-28T13:22:00;10.05;;;4.57;;
68647;SDS011;55632;51.962;16.116;2023-02-28T13:47:41;301.33;;;128.32;;
68647;SDS011;55632;51.962;16.116;2023-02-28T14:08:37;20.02;;;10.05;;
68647;SDS011;55632;51.962;16.116;2023-02-28T14:13:57;11.52;;;6.55;;
68647;SDS011;55632;51.962;16.116;2023-02-28T14:34:57;10.73;;;5.45;;
68647;SDS011;55632;51.962;16.116;2023-02-28T14:40:32;12.68;;;5.53;;
68647;SDS011;55632;51.962;16.116;2023-02-28T14:45:35;22.98;;;9.10;;
68647;SDS011;55632;51.962;16.116;2023-02-28T14:50:37;9.93;;;5.95;;
68647;SDS011;55632;51.962;16.116;2023-02-28T15:00:48;11.18;;;6.30;;
68647;SDS011;55632;51.962;16.116;2023-02-28T15:05:51;11.15;;;5.95;;
68647;SDS011;55632;51.962;16.116;2023-02-28T15:11:03;22.63;;;9.95;;
68647;SDS011;55632;51.962;16.116;2023-02-28T15:16:10;10.80;;;6.60;;
68647;SDS011;55632;51.962;16.116;2023-02-28T15:21:36;32.70;;;11.32;;
68647;SDS011;55632;51.962;16.116;2023-02-28T15:26:45;21.35;;;9.10;;
68647;SDS011;55632;51.962;16.116;2023-02-28T15:31:49;13.02;;;7.20;;
68647;SDS011;55632;51.962;16.116;2023-02-28T15:36:51;13.18;;;7.38;;
68647;SDS011;55632;51.962;16.116;2023-02-28T15:47:17;287.23;;;69.88;;
68647;SDS011;55632;51.962;16.116;2023-02-28T15:52:33;209.70;;;50.97;;
68647;SDS011;55632;51.962;16.116;2023-02-28T15:57:38;447.50;;;118.35;;
68647;SDS011;55632;51.962;16.116;2023-02-28T16:02:41;196.98;;;75.68;;
68647;SDS011;55632;51.962;16.116;2023-02-28T16:12:43;27.50;;;11.13;;
68647;SDS011;55632;51.962;16.116;2023-02-28T16:27:48;42.85;;;18.25;;
68647;SDS011;55632;51.962;16.116;2023-02-28T16:32:52;10.52;;;5.88;;
68647;SDS011;55632;51.962;16.116;2023-02-28T16:37:54;9.98;;;5.60;;
68647;SDS011;55632;51.962;16.116;2023-02-28T16:42:57;15.98;;;7.65;;
68647;SDS011;55632;51.962;16.116;2023-02-28T16:48:00;12.45;;;6.82;;
68647;SDS011;55632;51.962;16.116;2023-02-28T16:58:02;9.35;;;5.68;;
68647;SDS011;55632;51.962;16.116;2023-02-28T17:03:03;10.27;;;5.60;;
68647;SDS011;55632;51.962;16.116;2023-02-28T17:08:06;15.43;;;7.53;;
68647;SDS011;55632;51.962;16.116;2023-02-28T17:18:09;17.58;;;8.95;;
68647;SDS011;55632;51.962;16.116;2023-02-28T17:23:16;182.98;;;63.47;;
68647;SDS011;55632;51.962;16.116;2023-02-28T17:28:16;41.78;;;16.58;;
68647;SDS011;55632;51.962;16.116;2023-02-28T17:33:17;17.83;;;9.25;;
68647;SDS011;55632;51.962;16.116;2023-02-28T17:38:19;26.20;;;9.30;;
68647;SDS011;55632;51.962;16.116;2023-02-28T17:43:23;43.45;;;17.48;;
68647;SDS011;55632;51.962;16.116;2023-02-28T17:48:25;38.85;;;17.10;;
68647;SDS011;55632;51.962;16.116;2023-02-28T17:58:27;17.60;;;8.80;;
68647;SDS011;55632;51.962;16.116;2023-02-28T18:03:28;39.15;;;20.15;;
68647;SDS011;55632;51.962;16.116;2023-02-28T18:08:31;29.85;;;14.00;;
68647;SDS011;55632;51.962;16.116;2023-02-28T18:13:35;16.48;;;9.30;;
68647;SDS011;55632;51.962;16.116;2023-02-28T18:18:35;21.70;;;11.10;;
68647;SDS011;55632;51.962;16.116;2023-02-28T18:23:37;22.58;;;11.18;;
68647;SDS011;55632;51.962;16.116;2023-02-28T18:28:46;19.42;;;9.98;;
68647;SDS011;55632;51.962;16.116;2023-02-28T18:33:49;26.38;;;12.10;;
68647;SDS011;55632;51.962;16.116;2023-02-28T18:38:50;32.05;;;14.73;;
68647;SDS011;55632;51.962;16.116;2023-02-28T18:43:52;63.50;;;24.02;;
68647;SDS011;55632;51.962;16.116;2023-02-28T18:48:53;56.15;;;25.08;;
68647;SDS011;55632;51.962;16.116;2023-02-28T18:53:54;62.17;;;24.33;;
68647;SDS011;55632;51.962;16.116;2023-02-28T18:58:55;34.70;;;14.55;;
68647;SDS011;55632;51.962;16.116;2023-02-28T19:03:56;33.08;;;16.15;;
68647;SDS011;55632;51.962;16.116;2023-02-28T19:09:00;36.22;;;17.48;;
68647;SDS011;55632;51.962;16.116;2023-02-28T19:14:03;45.47;;;19.83;;
68647;SDS011;55632;51.962;16.116;2023-02-28T19:19:04;45.42;;;23.23;;
68647;SDS011;55632;51.962;16.116;2023-02-28T19:24:05;62.50;;;27.70;;
68647;SDS011;55632;51.962;16.116;2023-02-28T19:29:05;63.20;;;26.40;;
68647;SDS011;55632;51.962;16.116;2023-02-28T19:34:07;37.88;;;18.10;;
68647;SDS011;55632;51.962;16.116;2023-02-28T19:39:07;38.30;;;14.95;;
68647;SDS011;55632;51.962;16.116;2023-02-28T19:44:08;34.17;;;15.35;;
68647;SDS011;55632;51.962;16.116;2023-02-28T19:49:09;30.52;;;15.57;;
68647;SDS011;55632;51.962;16.116;2023-02-28T19:54:12;32.75;;;15.63;;
68647;SDS011;55632;51.962;16.116;2023-02-28T19:59:13;34.47;;;16.65;;
68647;SDS011;55632;51.962;16.116;2023-02-28T20:04:14;35.97;;;16.67;;
68647;SDS011;55632;51.962;16.116;2023-02-28T20:09:14;58.63;;;23.40;;
68647;SDS011;55632;51.962;16.116;2023-02-28T20:19:17;56.77;;;24.07;;
68647;SDS011;55632;51.962;16.116;2023-02-28T20:24:20;56.13;;;22.63;;
68647;SDS011;55632;51.962;16.116;2023-02-28T20:29:25;80.43;;;33.53;;
68647;SDS011;55632;51.962;16.116;2023-02-28T20:34:26;45.28;;;18.50;;
68647;SDS011;55632;51.962;16.116;2023-02-28T20:39:26;34.95;;;15.45;;
68647;SDS011;55632;51.962;16.116;2023-02-28T20:44:27;51.00;;;20.85;;
68647;SDS011;55632;51.962;16.116;2023-02-28T20:49:28;45.78;;;19.05;;
68647;SDS011;55632;51.962;16.116;2023-02-28T20:59:30;94.80;;;36.60;;
68647;SDS011;55632;51.962;16.116;2023-02-28T21:04:31;51.42;;;22.17;;
68647;SDS011;55632;51.962;16.116;2023-02-28T21:09:32;100.63;;;37.33;;
68647;SDS011;55632;51.962;16.116;2023-02-28T21:14:32;86.50;;;35.03;;
68647;SDS011;55632;51.962;16.116;2023-02-28T21:19:33;124.90;;;36.47;;
68647;SDS011;55632;51.962;16.116;2023-02-28T21:24:34;99.93;;;34.58;;
68647;SDS011;55632;51.962;16.116;2023-02-28T21:29:35;96.25;;;32.72;;
68647;SDS011;55632;51.962;16.116;2023-02-28T21:34:36;64.18;;;25.92;;
68647;SDS011;55632;51.962;16.116;2023-02-28T21:39:38;80.50;;;28.50;;
68647;SDS011;55632;51.962;16.116;2023-02-28T21:44:39;47.23;;;21.70;;
68647;SDS011;55632;51.962;16.116;2023-02-28T21:49:40;45.90;;;19.97;;
68647;SDS011;55632;51.962;16.116;2023-02-28T21:54:41;84.10;;;32.13;;
68647;SDS011;55632;51.962;16.116;2023-02-28T21:59:42;77.50;;;29.42;;
68647;SDS011;55632;51.962;16.116;2023-02-28T22:04:43;63.50;;;25.90;;
68647;SDS011;55632;51.962;16.116;2023-02-28T22:09:44;69.57;;;26.88;;
68647;SDS011;55632;51.962;16.116;2023-02-28T22:14:44;74.18;;;27.77;;
68647;SDS011;55632;51.962;16.116;2023-02-28T22:19:45;81.88;;;33.03;;
68647;SDS011;55632;51.962;16.116;2023-02-28T22:24:46;145.82;;;44.67;;
68647;SDS011;55632;51.962;16.116;2023-02-28T22:29:47;191.00;;;53.50;;
68647;SDS011;55632;51.962;16.116;2023-02-28T22:34:51;136.43;;;44.55;;
68647;SDS011;55632;51.962;16.116;2023-02-28T22:39:55;126.63;;;43.43;;
68647;SDS011;55632;51.962;16.116;2023-02-28T22:44:56;143.48;;;45.20;;
68647;SDS011;55632;51.962;16.116;2023-02-28T22:49:59;183.50;;;56.67;;
68647;SDS011;55632;51.962;16.116;2023-02-28T22:55:00;192.35;;;60.92;;
68647;SDS011;55632;51.962;16.116;2023-02-28T23:00:00;230.05;;;76.60;;
68647;SDS011;55632;51.962;16.116;2023-02-28T23:10:08;287.67;;;92.93;;
68647;SDS011;55632;51.962;16.116;2023-02-28T23:15:14;279.30;;;86.83;;
68647;SDS011;55632;51.962;16.116;2023-02-28T23:20:18;166.97;;;51.17;;
68647;SDS011;55632;51.962;16.116;2023-02-28T23:25:20;130.80;;;43.77;;
68647;SDS011;55632;51.962;16.116;2023-02-28T23:30:23;80.00;;;32.03;;
68647;SDS011;55632;51.962;16.116;2023-02-28T23:35:24;77.17;;;33.97;;
68647;SDS011;55632;51.962;16.116;2023-02-28T23:40:25;92.28;;;37.08;;
68647;SDS011;55632;51.962;16.116;2023-02-28T23:45:26;157.88;;;43.60;;
68647;SDS011;55632;51.962;16.116;2023-02-28T23:50:27;171.57;;;47.22;;
68647;SDS011;55632;51.962;16.116;2023-02-28T23:55:27;111.30;;;38.45;;
